Peters, Pennsylvania
Current Conditions -  °F | °C
As of 10:53 PM on Friday 24 Oct 2014 (Local Time) from KHGR Reporting Station
Clear Clear  
Wind Chill: 52°   Ceiling: Unl
Heat Index: 52°   Visibility: 10mi
Dew Point: 37°   Wind: 0mph
Humidity: 57%   Direction: NA
Pressure: 29.98"   Gusts: NA
Location:  39.8035°N, 77.9346°W
Report Text: KHGR 250253Z AUTO 00000KT 10SM CLR 11/03 A2998 RMK AO2 SLP162 T01110028 51008
Loading
Personal Weather Stations






























Interactive Weather Map
Tropical Storm Tracking
New forecast layout! Learn more

10-Day Weather Forecast

Advertisements
Track Severe Weather on mobile